LRSB - SIBIU

Compiled: 17:54:59 on 22/07/2018

Latest METAR/SPECI Reports

SPECI LRSB 221738Z 17004KT 9999 SCT040 23/19 Q1010 R27/CLRD//=

Previous reports

METAR LRSB 221730Z 17004KT 9999 SCT040 23/19 Q1010 R27/29//95=
METAR LRSB 221700Z VRB02KT 9999 SCT035 24/18 Q1010 R27/29//95=
METAR LRSB 221630Z 35005KT 320V030 9999 FEW035CB SCT040 25/17 Q1010 RERA R27/29//95=
METAR LRSB 221600Z 27004KT 230V300 9999 -SHRA FEW033CB SCT040 23/18 Q1010 R27/29//95=

Latest TAF report

TAF LRSB 221700Z 2218/2318 VRB04KT 9999 SCT035 TEMPO 2306/2310 FEW035CB BKN050 TEMPO 2310/2316 VRB15G25KT 3000 TSRA SCT010 BKN030CB=

Valid WARNINGS

No valid warnings for LRSB